Satellite Precipitation Estimates (TXUS20 KWBC)
Issued by NWS

Home | Current Version | Previous Version | Text Only | Print | Product List | Glossary On
Versions: 1
000
SPTD31 TTPP 262025
SPECI
TTPP 262020Z 13013KT 8000 0800S SCT023 30/23 Q1012 NOSIG RMK HZ, FU=



USA.gov is the U.S. government's official web portal to all federal, state and local government web resources and services.